sensor_id;sensor_type;location;lat;lon;timestamp;temperature;humidity
15355;DHT22;7777;52.254;9.618;2022-07-31T00:01:14;18.30;99.90
15355;DHT22;7777;52.254;9.618;2022-07-31T00:03:40;18.30;99.90
15355;DHT22;7777;52.254;9.618;2022-07-31T00:06:07;18.30;99.90
15355;DHT22;7777;52.254;9.618;2022-07-31T00:08:33;18.30;99.90
15355;DHT22;7777;52.254;9.618;2022-07-31T00:10:59;18.30;99.90
15355;DHT22;7777;52.254;9.618;2022-07-31T00:13:25;18.30;99.90
15355;DHT22;7777;52.254;9.618;2022-07-31T00:15:51;18.30;99.90
15355;DHT22;7777;52.254;9.618;2022-07-31T00:18:17;18.30;99.90
15355;DHT22;7777;52.254;9.618;2022-07-31T00:20:42;18.30;99.90
15355;DHT22;7777;52.254;9.618;2022-07-31T00:23:09;18.30;99.90
15355;DHT22;7777;52.254;9.618;2022-07-31T00:25:35;18.30;99.90
15355;DHT22;7777;52.254;9.618;2022-07-31T00:28:02;18.40;99.90
15355;DHT22;7777;52.254;9.618;2022-07-31T00:30:28;18.30;99.90
15355;DHT22;7777;52.254;9.618;2022-07-31T00:32:55;18.30;99.90
15355;DHT22;7777;52.254;9.618;2022-07-31T00:35:21;18.30;99.90
15355;DHT22;7777;52.254;9.618;2022-07-31T00:37:47;18.30;99.90
15355;DHT22;7777;52.254;9.618;2022-07-31T00:40:14;18.30;99.90
15355;DHT22;7777;52.254;9.618;2022-07-31T00:42:41;18.30;99.90
15355;DHT22;7777;52.254;9.618;2022-07-31T00:45:08;18.30;99.90
15355;DHT22;7777;52.254;9.618;2022-07-31T00:47:35;18.30;99.90
15355;DHT22;7777;52.254;9.618;2022-07-31T00:50:01;18.30;99.90
15355;DHT22;7777;52.254;9.618;2022-07-31T00:52:27;18.30;99.90
15355;DHT22;7777;52.254;9.618;2022-07-31T00:54:53;18.30;99.90
15355;DHT22;7777;52.254;9.618;2022-07-31T00:57:18;18.30;99.90
15355;DHT22;7777;52.254;9.618;2022-07-31T00:59:44;18.30;99.90
15355;DHT22;7777;52.254;9.618;2022-07-31T01:02:10;18.30;99.90
15355;DHT22;7777;52.254;9.618;2022-07-31T01:04:36;18.30;99.90
15355;DHT22;7777;52.254;9.618;2022-07-31T01:07:02;18.30;99.90
15355;DHT22;7777;52.254;9.618;2022-07-31T01:09:28;18.20;99.90
15355;DHT22;7777;52.254;9.618;2022-07-31T01:12:14;18.20;99.90
15355;DHT22;7777;52.254;9.618;2022-07-31T01:14:47;18.20;99.90
15355;DHT22;7777;52.254;9.618;2022-07-31T01:17:15;18.20;99.90
15355;DHT22;7777;52.254;9.618;2022-07-31T01:19:47;18.10;99.90
15355;DHT22;7777;52.254;9.618;2022-07-31T01:26:02;18.00;99.90
15355;DHT22;7777;52.254;9.618;2022-07-31T01:32:17;18.00;99.90
15355;DHT22;7777;52.254;9.618;2022-07-31T01:35:17;17.90;99.90
15355;DHT22;7777;52.254;9.618;2022-07-31T01:37:51;17.90;99.90
15355;DHT22;7777;52.254;9.618;2022-07-31T01:40:32;17.90;99.90
15355;DHT22;7777;52.254;9.618;2022-07-31T01:43:31;17.80;99.90
15355;DHT22;7777;52.254;9.618;2022-07-31T01:45:59;17.70;99.90
15355;DHT22;7777;52.254;9.618;2022-07-31T01:48:28;17.60;99.90
15355;DHT22;7777;52.254;9.618;2022-07-31T01:50:57;17.60;99.90
15355;DHT22;7777;52.254;9.618;2022-07-31T01:53:25;17.60;99.90
15355;DHT22;7777;52.254;9.618;2022-07-31T01:55:55;17.50;99.90
15355;DHT22;7777;52.254;9.618;2022-07-31T01:58:23;17.50;99.90
15355;DHT22;7777;52.254;9.618;2022-07-31T02:00:51;17.50;99.90
15355;DHT22;7777;52.254;9.618;2022-07-31T02:03:19;17.40;99.90
15355;DHT22;7777;52.254;9.618;2022-07-31T02:05:49;17.50;99.90
15355;DHT22;7777;52.254;9.618;2022-07-31T02:08:17;17.40;99.90
15355;DHT22;7777;52.254;9.618;2022-07-31T02:10:46;17.30;99.90
15355;DHT22;7777;52.254;9.618;2022-07-31T02:13:13;17.20;99.90
15355;DHT22;7777;52.254;9.618;2022-07-31T02:15:43;17.20;99.90
15355;DHT22;7777;52.254;9.618;2022-07-31T02:18:11;17.20;99.90
15355;DHT22;7777;52.254;9.618;2022-07-31T02:20:38;17.20;99.90
15355;DHT22;7777;52.254;9.618;2022-07-31T02:23:04;17.10;99.90
15355;DHT22;7777;52.254;9.618;2022-07-31T02:25:32;17.10;99.90
15355;DHT22;7777;52.254;9.618;2022-07-31T02:28:02;17.10;99.90
15355;DHT22;7777;52.254;9.618;2022-07-31T02:30:31;17.10;99.90
15355;DHT22;7777;52.254;9.618;2022-07-31T02:32:59;17.10;99.90
15355;DHT22;7777;52.254;9.618;2022-07-31T02:35:27;17.10;99.90
15355;DHT22;7777;52.254;9.618;2022-07-31T02:37:54;17.10;99.90
15355;DHT22;7777;52.254;9.618;2022-07-31T02:40:21;17.10;99.90
15355;DHT22;7777;52.254;9.618;2022-07-31T02:42:49;17.10;99.90
15355;DHT22;7777;52.254;9.618;2022-07-31T02:45:17;17.10;99.90
15355;DHT22;7777;52.254;9.618;2022-07-31T02:47:43;17.00;99.90
15355;DHT22;7777;52.254;9.618;2022-07-31T02:50:09;17.00;99.90
15355;DHT22;7777;52.254;9.618;2022-07-31T02:52:36;17.00;99.90
15355;DHT22;7777;52.254;9.618;2022-07-31T02:55:03;17.00;99.90
15355;DHT22;7777;52.254;9.618;2022-07-31T02:57:30;17.00;99.90
15355;DHT22;7777;52.254;9.618;2022-07-31T02:59:56;16.90;99.90
15355;DHT22;7777;52.254;9.618;2022-07-31T03:02:21;16.90;99.90
15355;DHT22;7777;52.254;9.618;2022-07-31T03:04:47;16.90;99.90
15355;DHT22;7777;52.254;9.618;2022-07-31T03:07:13;16.80;99.90
15355;DHT22;7777;52.254;9.618;2022-07-31T03:09:41;16.80;99.90
15355;DHT22;7777;52.254;9.618;2022-07-31T03:12:07;16.80;99.90
15355;DHT22;7777;52.254;9.618;2022-07-31T03:14:34;16.80;99.90
15355;DHT22;7777;52.254;9.618;2022-07-31T03:17:02;16.80;99.90
15355;DHT22;7777;52.254;9.618;2022-07-31T03:19:29;16.80;99.90
15355;DHT22;7777;52.254;9.618;2022-07-31T03:21:57;16.80;99.90
15355;DHT22;7777;52.254;9.618;2022-07-31T03:24:24;16.80;99.90
15355;DHT22;7777;52.254;9.618;2022-07-31T03:26:50;16.70;99.90
15355;DHT22;7777;52.254;9.618;2022-07-31T03:29:16;16.70;99.90
15355;DHT22;7777;52.254;9.618;2022-07-31T03:31:43;16.70;99.90
15355;DHT22;7777;52.254;9.618;2022-07-31T03:34:09;16.80;99.90
15355;DHT22;7777;52.254;9.618;2022-07-31T03:36:36;16.80;99.90
15355;DHT22;7777;52.254;9.618;2022-07-31T03:39:03;16.80;99.90
15355;DHT22;7777;52.254;9.618;2022-07-31T03:41:30;16.80;99.90
15355;DHT22;7777;52.254;9.618;2022-07-31T03:43:56;16.80;99.90
15355;DHT22;7777;52.254;9.618;2022-07-31T03:46:23;16.90;99.90
15355;DHT22;7777;52.254;9.618;2022-07-31T03:48:50;16.90;99.90
15355;DHT22;7777;52.254;9.618;2022-07-31T03:51:19;16.90;99.90
15355;DHT22;7777;52.254;9.618;2022-07-31T03:53:45;16.90;99.90
15355;DHT22;7777;52.254;9.618;2022-07-31T03:56:13;16.90;99.90
15355;DHT22;7777;52.254;9.618;2022-07-31T03:58:40;16.90;99.90
15355;DHT22;7777;52.254;9.618;2022-07-31T04:01:06;16.90;99.90
15355;DHT22;7777;52.254;9.618;2022-07-31T04:03:32;17.00;99.90
15355;DHT22;7777;52.254;9.618;2022-07-31T04:05:58;17.00;99.90
15355;DHT22;7777;52.254;9.618;2022-07-31T04:08:24;17.00;99.90
15355;DHT22;7777;52.254;9.618;2022-07-31T04:10:50;17.10;99.90
15355;DHT22;7777;52.254;9.618;2022-07-31T04:13:19;17.10;99.90
15355;DHT22;7777;52.254;9.618;2022-07-31T04:15:45;17.10;99.90
15355;DHT22;7777;52.254;9.618;2022-07-31T04:18:10;17.10;99.90
15355;DHT22;7777;52.254;9.618;2022-07-31T04:20:36;17.20;99.90
15355;DHT22;7777;52.254;9.618;2022-07-31T04:23:02;17.20;99.90
15355;DHT22;7777;52.254;9.618;2022-07-31T04:25:28;17.20;99.90
15355;DHT22;7777;52.254;9.618;2022-07-31T04:27:54;17.20;99.90
15355;DHT22;7777;52.254;9.618;2022-07-31T04:30:19;17.20;99.90
15355;DHT22;7777;52.254;9.618;2022-07-31T04:32:45;17.30;99.90
15355;DHT22;7777;52.254;9.618;2022-07-31T04:35:11;17.30;99.90
15355;DHT22;7777;52.254;9.618;2022-07-31T04:37:37;17.40;99.90
15355;DHT22;7777;52.254;9.618;2022-07-31T04:40:03;17.40;99.90
15355;DHT22;7777;52.254;9.618;2022-07-31T04:42:29;17.40;99.90
15355;DHT22;7777;52.254;9.618;2022-07-31T04:44:55;17.50;99.90
15355;DHT22;7777;52.254;9.618;2022-07-31T04:47:21;17.50;99.90
15355;DHT22;7777;52.254;9.618;2022-07-31T04:49:47;17.60;99.90
15355;DHT22;7777;52.254;9.618;2022-07-31T04:52:12;17.60;99.90
15355;DHT22;7777;52.254;9.618;2022-07-31T04:54:38;17.60;99.90
15355;DHT22;7777;52.254;9.618;2022-07-31T04:57:04;17.60;99.90
15355;DHT22;7777;52.254;9.618;2022-07-31T04:59:31;17.70;99.90
15355;DHT22;7777;52.254;9.618;2022-07-31T05:01:57;17.70;99.90
15355;DHT22;7777;52.254;9.618;2022-07-31T05:04:22;17.80;99.90
15355;DHT22;7777;52.254;9.618;2022-07-31T05:06:50;17.80;99.90
15355;DHT22;7777;52.254;9.618;2022-07-31T05:09:21;17.80;99.90
15355;DHT22;7777;52.254;9.618;2022-07-31T05:11:49;17.90;99.90
15355;DHT22;7777;52.254;9.618;2022-07-31T05:14:16;17.90;99.90
15355;DHT22;7777;52.254;9.618;2022-07-31T05:16:43;18.00;99.90
15355;DHT22;7777;52.254;9.618;2022-07-31T05:19:09;18.00;99.90
15355;DHT22;7777;52.254;9.618;2022-07-31T05:21:35;18.00;99.90
15355;DHT22;7777;52.254;9.618;2022-07-31T05:24:01;18.00;99.90
15355;DHT22;7777;52.254;9.618;2022-07-31T05:26:29;18.10;99.90
15355;DHT22;7777;52.254;9.618;2022-07-31T05:28:58;18.10;99.90
15355;DHT22;7777;52.254;9.618;2022-07-31T05:31:25;18.10;99.90
15355;DHT22;7777;52.254;9.618;2022-07-31T05:33:51;18.20;99.90
15355;DHT22;7777;52.254;9.618;2022-07-31T05:36:18;18.30;99.90
15355;DHT22;7777;52.254;9.618;2022-07-31T05:38:44;18.30;99.90
15355;DHT22;7777;52.254;9.618;2022-07-31T05:41:09;18.40;99.90
15355;DHT22;7777;52.254;9.618;2022-07-31T05:43:36;18.40;99.90
15355;DHT22;7777;52.254;9.618;2022-07-31T05:46:03;18.40;99.90
15355;DHT22;7777;52.254;9.618;2022-07-31T05:48:30;18.40;99.90
15355;DHT22;7777;52.254;9.618;2022-07-31T05:50:56;18.50;99.90
15355;DHT22;7777;52.254;9.618;2022-07-31T05:53:22;18.50;99.90
15355;DHT22;7777;52.254;9.618;2022-07-31T05:55:49;18.60;99.90
15355;DHT22;7777;52.254;9.618;2022-07-31T05:58:17;18.60;99.90
15355;DHT22;7777;52.254;9.618;2022-07-31T06:00:46;18.60;99.90
15355;DHT22;7777;52.254;9.618;2022-07-31T06:03:13;18.70;99.90
15355;DHT22;7777;52.254;9.618;2022-07-31T06:05:40;18.70;99.90
15355;DHT22;7777;52.254;9.618;2022-07-31T06:08:06;18.70;99.90
15355;DHT22;7777;52.254;9.618;2022-07-31T06:10:34;18.80;99.90
15355;DHT22;7777;52.254;9.618;2022-07-31T06:13:00;18.80;99.90
15355;DHT22;7777;52.254;9.618;2022-07-31T06:15:26;18.90;99.90
15355;DHT22;7777;52.254;9.618;2022-07-31T06:17:52;18.90;99.90
15355;DHT22;7777;52.254;9.618;2022-07-31T06:20:18;19.00;99.90
15355;DHT22;7777;52.254;9.618;2022-07-31T06:22:44;19.00;99.90
15355;DHT22;7777;52.254;9.618;2022-07-31T06:25:10;19.10;99.90
15355;DHT22;7777;52.254;9.618;2022-07-31T06:27:39;19.20;99.90
15355;DHT22;7777;52.254;9.618;2022-07-31T06:30:07;19.20;99.90
15355;DHT22;7777;52.254;9.618;2022-07-31T06:32:33;19.20;99.90
15355;DHT22;7777;52.254;9.618;2022-07-31T06:35:00;19.30;99.90
15355;DHT22;7777;52.254;9.618;2022-07-31T06:37:26;19.30;99.90
15355;DHT22;7777;52.254;9.618;2022-07-31T06:39:53;19.40;99.90
15355;DHT22;7777;52.254;9.618;2022-07-31T06:42:22;19.40;99.90
15355;DHT22;7777;52.254;9.618;2022-07-31T06:44:50;19.40;99.90
15355;DHT22;7777;52.254;9.618;2022-07-31T06:47:18;19.50;99.90
15355;DHT22;7777;52.254;9.618;2022-07-31T06:49:45;19.50;99.90
15355;DHT22;7777;52.254;9.618;2022-07-31T06:52:11;19.50;99.90
15355;DHT22;7777;52.254;9.618;2022-07-31T06:54:36;19.50;99.90
15355;DHT22;7777;52.254;9.618;2022-07-31T06:57:05;19.60;99.90
15355;DHT22;7777;52.254;9.618;2022-07-31T06:59:32;19.60;99.90
15355;DHT22;7777;52.254;9.618;2022-07-31T07:01:57;19.60;99.90
15355;DHT22;7777;52.254;9.618;2022-07-31T07:04:23;19.70;99.90
15355;DHT22;7777;52.254;9.618;2022-07-31T07:06:49;19.70;99.90
15355;DHT22;7777;52.254;9.618;2022-07-31T07:09:14;19.70;99.90
15355;DHT22;7777;52.254;9.618;2022-07-31T07:11:40;19.70;99.90
15355;DHT22;7777;52.254;9.618;2022-07-31T07:14:06;19.70;99.90
15355;DHT22;7777;52.254;9.618;2022-07-31T07:16:31;19.70;99.90
15355;DHT22;7777;52.254;9.618;2022-07-31T07:18:57;19.80;99.90
15355;DHT22;7777;52.254;9.618;2022-07-31T07:21:23;19.80;99.90
15355;DHT22;7777;52.254;9.618;2022-07-31T07:23:49;19.80;99.90
15355;DHT22;7777;52.254;9.618;2022-07-31T07:26:15;19.80;99.90
15355;DHT22;7777;52.254;9.618;2022-07-31T07:28:40;19.80;99.90
15355;DHT22;7777;52.254;9.618;2022-07-31T07:31:06;19.90;99.90
15355;DHT22;7777;52.254;9.618;2022-07-31T07:33:32;19.80;99.90
15355;DHT22;7777;52.254;9.618;2022-07-31T07:35:58;19.90;99.90
15355;DHT22;7777;52.254;9.618;2022-07-31T07:38:24;20.00;99.90
15355;DHT22;7777;52.254;9.618;2022-07-31T07:40:50;19.90;99.90
15355;DHT22;7777;52.254;9.618;2022-07-31T07:43:16;20.00;99.90
15355;DHT22;7777;52.254;9.618;2022-07-31T07:45:42;20.00;99.90
15355;DHT22;7777;52.254;9.618;2022-07-31T07:48:08;20.10;99.90
15355;DHT22;7777;52.254;9.618;2022-07-31T07:50:34;20.10;99.90
15355;DHT22;7777;52.254;9.618;2022-07-31T07:53:00;20.20;99.90
15355;DHT22;7777;52.254;9.618;2022-07-31T07:55:26;20.20;99.90
15355;DHT22;7777;52.254;9.618;2022-07-31T07:57:52;20.30;99.90
15355;DHT22;7777;52.254;9.618;2022-07-31T08:00:18;20.30;99.90
15355;DHT22;7777;52.254;9.618;2022-07-31T08:02:44;20.40;99.90
15355;DHT22;7777;52.254;9.618;2022-07-31T08:05:11;20.50;99.90
15355;DHT22;7777;52.254;9.618;2022-07-31T08:07:39;20.50;99.90
15355;DHT22;7777;52.254;9.618;2022-07-31T08:10:06;20.50;99.90
15355;DHT22;7777;52.254;9.618;2022-07-31T08:12:33;20.60;99.90
15355;DHT22;7777;52.254;9.618;2022-07-31T08:14:59;20.70;99.90
15355;DHT22;7777;52.254;9.618;2022-07-31T08:17:25;20.70;99.90
15355;DHT22;7777;52.254;9.618;2022-07-31T08:19:51;20.80;99.90
15355;DHT22;7777;52.254;9.618;2022-07-31T08:22:17;20.80;99.90
15355;DHT22;7777;52.254;9.618;2022-07-31T08:24:43;20.90;99.90
15355;DHT22;7777;52.254;9.618;2022-07-31T08:27:09;20.90;99.90
15355;DHT22;7777;52.254;9.618;2022-07-31T08:29:54;21.00;99.90
15355;DHT22;7777;52.254;9.618;2022-07-31T08:32:22;21.10;99.90
15355;DHT22;7777;52.254;9.618;2022-07-31T08:34:48;21.20;99.90
15355;DHT22;7777;52.254;9.618;2022-07-31T08:37:14;21.20;99.90
15355;DHT22;7777;52.254;9.618;2022-07-31T08:39:44;21.30;99.90
15355;DHT22;7777;52.254;9.618;2022-07-31T08:42:11;21.30;99.90
15355;DHT22;7777;52.254;9.618;2022-07-31T08:44:38;21.30;99.90
15355;DHT22;7777;52.254;9.618;2022-07-31T08:47:06;21.40;99.90
15355;DHT22;7777;52.254;9.618;2022-07-31T08:49:39;21.40;99.90
15355;DHT22;7777;52.254;9.618;2022-07-31T08:52:12;21.50;99.90
15355;DHT22;7777;52.254;9.618;2022-07-31T08:54:42;21.50;99.90
15355;DHT22;7777;52.254;9.618;2022-07-31T08:57:08;21.50;99.90
15355;DHT22;7777;52.254;9.618;2022-07-31T08:59:36;21.60;99.90
15355;DHT22;7777;52.254;9.618;2022-07-31T09:02:03;21.60;99.90
15355;DHT22;7777;52.254;9.618;2022-07-31T09:04:30;21.70;99.90
15355;DHT22;7777;52.254;9.618;2022-07-31T09:06:56;21.70;99.90
15355;DHT22;7777;52.254;9.618;2022-07-31T09:09:25;21.80;99.90
15355;DHT22;7777;52.254;9.618;2022-07-31T09:11:52;21.80;99.90
15355;DHT22;7777;52.254;9.618;2022-07-31T09:14:30;21.90;99.90
15355;DHT22;7777;52.254;9.618;2022-07-31T09:16:59;22.00;99.90
15355;DHT22;7777;52.254;9.618;2022-07-31T09:19:43;22.20;99.90
15355;DHT22;7777;52.254;9.618;2022-07-31T09:24:49;22.30;99.90
15355;DHT22;7777;52.254;9.618;2022-07-31T09:27:14;22.40;99.90
15355;DHT22;7777;52.254;9.618;2022-07-31T09:29:43;22.50;99.90
15355;DHT22;7777;52.254;9.618;2022-07-31T09:32:14;22.60;99.90
15355;DHT22;7777;52.254;9.618;2022-07-31T09:34:42;22.80;99.90
15355;DHT22;7777;52.254;9.618;2022-07-31T09:37:09;22.90;99.90
15355;DHT22;7777;52.254;9.618;2022-07-31T09:39:39;23.00;99.90
15355;DHT22;7777;52.254;9.618;2022-07-31T09:42:07;23.10;99.90
15355;DHT22;7777;52.254;9.618;2022-07-31T09:44:43;23.20;99.90
15355;DHT22;7777;52.254;9.618;2022-07-31T09:47:24;23.30;99.90
15355;DHT22;7777;52.254;9.618;2022-07-31T09:49:54;23.30;99.90
15355;DHT22;7777;52.254;9.618;2022-07-31T09:52:23;23.40;99.90
15355;DHT22;7777;52.254;9.618;2022-07-31T09:57:26;23.70;99.90
15355;DHT22;7777;52.254;9.618;2022-07-31T09:59:52;23.70;99.90
15355;DHT22;7777;52.254;9.618;2022-07-31T10:02:23;23.80;99.90
15355;DHT22;7777;52.254;9.618;2022-07-31T10:04:56;23.80;99.90
15355;DHT22;7777;52.254;9.618;2022-07-31T10:07:24;23.90;99.90
15355;DHT22;7777;52.254;9.618;2022-07-31T10:09:58;23.90;99.90
15355;DHT22;7777;52.254;9.618;2022-07-31T10:12:28;23.90;99.90
15355;DHT22;7777;52.254;9.618;2022-07-31T10:14:58;23.90;99.20
15355;DHT22;7777;52.254;9.618;2022-07-31T10:17:31;23.80;99.30
15355;DHT22;7777;52.254;9.618;2022-07-31T10:20:03;23.80;99.00
15355;DHT22;7777;52.254;9.618;2022-07-31T10:22:34;24.00;99.90
15355;DHT22;7777;52.254;9.618;2022-07-31T10:25:03;24.00;99.60
15355;DHT22;7777;52.254;9.618;2022-07-31T10:27:30;24.00;98.50
15355;DHT22;7777;52.254;9.618;2022-07-31T10:29:57;24.10;99.80
15355;DHT22;7777;52.254;9.618;2022-07-31T10:32:23;24.10;99.90
15355;DHT22;7777;52.254;9.618;2022-07-31T10:34:49;24.30;99.50
15355;DHT22;7777;52.254;9.618;2022-07-31T10:37:35;24.40;99.60
15355;DHT22;7777;52.254;9.618;2022-07-31T10:40:09;24.50;99.90
15355;DHT22;7777;52.254;9.618;2022-07-31T10:43:33;24.60;98.40
15355;DHT22;7777;52.254;9.618;2022-07-31T10:45:49;24.70;99.30
15355;DHT22;7777;52.254;9.618;2022-07-31T10:48:17;24.70;97.90
15355;DHT22;7777;52.254;9.618;2022-07-31T10:50:44;24.70;95.80
15355;DHT22;7777;52.254;9.618;2022-07-31T10:53:12;24.70;96.00
15355;DHT22;7777;52.254;9.618;2022-07-31T10:55:40;24.70;96.80
15355;DHT22;7777;52.254;9.618;2022-07-31T10:58:08;24.80;96.80
15355;DHT22;7777;52.254;9.618;2022-07-31T11:00:41;24.80;97.20
15355;DHT22;7777;52.254;9.618;2022-07-31T11:03:17;24.90;95.80
15355;DHT22;7777;52.254;9.618;2022-07-31T11:05:54;24.90;95.90
15355;DHT22;7777;52.254;9.618;2022-07-31T11:08:21;25.00;96.70
15355;DHT22;7777;52.254;9.618;2022-07-31T11:10:56;25.10;96.10
15355;DHT22;7777;52.254;9.618;2022-07-31T11:13:22;25.10;95.60
15355;DHT22;7777;52.254;9.618;2022-07-31T11:15:50;25.20;94.10
15355;DHT22;7777;52.254;9.618;2022-07-31T11:18:21;25.30;93.90
15355;DHT22;7777;52.254;9.618;2022-07-31T11:21:02;25.50;95.90
15355;DHT22;7777;52.254;9.618;2022-07-31T11:23:31;25.60;95.90
15355;DHT22;7777;52.254;9.618;2022-07-31T11:26:02;25.70;96.60
15355;DHT22;7777;52.254;9.618;2022-07-31T11:28:29;25.70;94.80
15355;DHT22;7777;52.254;9.618;2022-07-31T11:30:56;25.80;95.50
15355;DHT22;7777;52.254;9.618;2022-07-31T11:33:38;25.80;96.00
15355;DHT22;7777;52.254;9.618;2022-07-31T11:36:20;25.80;95.30
15355;DHT22;7777;52.254;9.618;2022-07-31T11:38:54;25.80;94.90
15355;DHT22;7777;52.254;9.618;2022-07-31T11:41:26;25.90;95.60
15355;DHT22;7777;52.254;9.618;2022-07-31T11:43:53;25.90;95.10
15355;DHT22;7777;52.254;9.618;2022-07-31T11:46:27;25.80;92.80
15355;DHT22;7777;52.254;9.618;2022-07-31T11:48:55;25.90;93.90
15355;DHT22;7777;52.254;9.618;2022-07-31T11:51:22;25.90;93.70
15355;DHT22;7777;52.254;9.618;2022-07-31T11:53:49;26.00;94.00
15355;DHT22;7777;52.254;9.618;2022-07-31T11:56:17;26.10;95.20
15355;DHT22;7777;52.254;9.618;2022-07-31T11:58:52;26.10;92.70
15355;DHT22;7777;52.254;9.618;2022-07-31T12:01:27;26.10;94.20
15355;DHT22;7777;52.254;9.618;2022-07-31T12:03:54;26.10;93.00
15355;DHT22;7777;52.254;9.618;2022-07-31T12:06:21;26.20;92.00
15355;DHT22;7777;52.254;9.618;2022-07-31T12:08:48;26.20;93.70
15355;DHT22;7777;52.254;9.618;2022-07-31T12:11:17;26.20;93.60
15355;DHT22;7777;52.254;9.618;2022-07-31T12:13:48;26.20;94.30
15355;DHT22;7777;52.254;9.618;2022-07-31T12:16:15;26.30;93.70
15355;DHT22;7777;52.254;9.618;2022-07-31T12:18:56;26.30;93.90
15355;DHT22;7777;52.254;9.618;2022-07-31T12:21:30;26.30;94.30
15355;DHT22;7777;52.254;9.618;2022-07-31T12:23:57;26.40;93.40
15355;DHT22;7777;52.254;9.618;2022-07-31T12:26:24;26.50;94.60
15355;DHT22;7777;52.254;9.618;2022-07-31T12:29:04;26.50;93.30
15355;DHT22;7777;52.254;9.618;2022-07-31T12:34:08;26.60;92.40
15355;DHT22;7777;52.254;9.618;2022-07-31T12:36:34;26.70;92.30
15355;DHT22;7777;52.254;9.618;2022-07-31T12:39:02;26.80;93.50
15355;DHT22;7777;52.254;9.618;2022-07-31T12:41:29;26.80;92.70
15355;DHT22;7777;52.254;9.618;2022-07-31T12:44:12;26.90;91.20
15355;DHT22;7777;52.254;9.618;2022-07-31T12:46:38;26.80;90.40
15355;DHT22;7777;52.254;9.618;2022-07-31T12:49:04;26.90;91.60
15355;DHT22;7777;52.254;9.618;2022-07-31T12:51:31;26.90;92.40
15355;DHT22;7777;52.254;9.618;2022-07-31T12:53:57;27.00;92.30
15355;DHT22;7777;52.254;9.618;2022-07-31T12:56:23;26.90;90.40
15355;DHT22;7777;52.254;9.618;2022-07-31T12:58:49;26.90;90.80
15355;DHT22;7777;52.254;9.618;2022-07-31T13:01:15;26.80;90.30
15355;DHT22;7777;52.254;9.618;2022-07-31T13:03:41;26.80;90.60
15355;DHT22;7777;52.254;9.618;2022-07-31T13:06:07;26.80;90.00
15355;DHT22;7777;52.254;9.618;2022-07-31T13:08:33;26.80;91.30
15355;DHT22;7777;52.254;9.618;2022-07-31T13:10:59;26.80;91.50
15355;DHT22;7777;52.254;9.618;2022-07-31T13:13:24;26.70;90.30
15355;DHT22;7777;52.254;9.618;2022-07-31T13:15:50;26.70;91.40
15355;DHT22;7777;52.254;9.618;2022-07-31T13:18:16;26.70;90.70
15355;DHT22;7777;52.254;9.618;2022-07-31T13:20:42;26.60;90.30
15355;DHT22;7777;52.254;9.618;2022-07-31T13:23:07;26.50;91.10
15355;DHT22;7777;52.254;9.618;2022-07-31T13:25:33;26.60;91.00
15355;DHT22;7777;52.254;9.618;2022-07-31T13:27:59;26.50;90.20
15355;DHT22;7777;52.254;9.618;2022-07-31T13:30:25;26.50;90.90
15355;DHT22;7777;52.254;9.618;2022-07-31T13:32:54;26.50;91.20
15355;DHT22;7777;52.254;9.618;2022-07-31T13:35:20;26.50;92.00
15355;DHT22;7777;52.254;9.618;2022-07-31T13:37:51;26.50;92.50
15355;DHT22;7777;52.254;9.618;2022-07-31T13:40:18;26.50;90.60
15355;DHT22;7777;52.254;9.618;2022-07-31T13:42:44;26.40;91.90
15355;DHT22;7777;52.254;9.618;2022-07-31T13:45:10;26.50;92.20
15355;DHT22;7777;52.254;9.618;2022-07-31T13:47:35;26.50;92.30
15355;DHT22;7777;52.254;9.618;2022-07-31T13:50:01;26.50;92.00
15355;DHT22;7777;52.254;9.618;2022-07-31T13:52:27;26.50;92.50
15355;DHT22;7777;52.254;9.618;2022-07-31T13:54:52;26.60;93.00
15355;DHT22;7777;52.254;9.618;2022-07-31T13:57:18;26.60;93.10
15355;DHT22;7777;52.254;9.618;2022-07-31T13:59:44;26.60;92.00
15355;DHT22;7777;52.254;9.618;2022-07-31T14:02:10;26.60;91.50
15355;DHT22;7777;52.254;9.618;2022-07-31T14:04:35;26.50;91.20
15355;DHT22;7777;52.254;9.618;2022-07-31T14:07:01;26.50;92.00
15355;DHT22;7777;52.254;9.618;2022-07-31T14:09:27;26.60;91.90
15355;DHT22;7777;52.254;9.618;2022-07-31T14:11:53;26.60;92.40
15355;DHT22;7777;52.254;9.618;2022-07-31T14:14:18;26.60;92.60
15355;DHT22;7777;52.254;9.618;2022-07-31T14:16:44;26.70;92.70
15355;DHT22;7777;52.254;9.618;2022-07-31T14:19:10;26.60;92.10
15355;DHT22;7777;52.254;9.618;2022-07-31T14:21:35;26.70;92.50
15355;DHT22;7777;52.254;9.618;2022-07-31T14:24:01;26.60;91.50
15355;DHT22;7777;52.254;9.618;2022-07-31T14:26:27;26.60;91.90
15355;DHT22;7777;52.254;9.618;2022-07-31T14:28:53;26.60;90.70
15355;DHT22;7777;52.254;9.618;2022-07-31T14:31:19;26.50;90.90
15355;DHT22;7777;52.254;9.618;2022-07-31T14:33:45;26.50;91.50
15355;DHT22;7777;52.254;9.618;2022-07-31T14:36:10;26.60;92.20
15355;DHT22;7777;52.254;9.618;2022-07-31T14:38:36;26.60;91.70
15355;DHT22;7777;52.254;9.618;2022-07-31T14:41:02;26.50;91.40
15355;DHT22;7777;52.254;9.618;2022-07-31T14:43:29;26.50;92.10
15355;DHT22;7777;52.254;9.618;2022-07-31T14:45:55;26.40;90.40
15355;DHT22;7777;52.254;9.618;2022-07-31T14:48:21;26.40;91.60
15355;DHT22;7777;52.254;9.618;2022-07-31T14:50:46;26.40;91.70
15355;DHT22;7777;52.254;9.618;2022-07-31T14:53:12;26.40;91.40
15355;DHT22;7777;52.254;9.618;2022-07-31T14:55:38;26.30;91.10
15355;DHT22;7777;52.254;9.618;2022-07-31T14:58:05;26.20;91.30
15355;DHT22;7777;52.254;9.618;2022-07-31T15:00:31;26.20;91.50
15355;DHT22;7777;52.254;9.618;2022-07-31T15:02:56;26.10;90.40
15355;DHT22;7777;52.254;9.618;2022-07-31T15:05:22;26.10;91.20
15355;DHT22;7777;52.254;9.618;2022-07-31T15:07:48;26.10;91.60
15355;DHT22;7777;52.254;9.618;2022-07-31T15:10:14;26.00;91.10
15355;DHT22;7777;52.254;9.618;2022-07-31T15:12:40;25.90;91.00
15355;DHT22;7777;52.254;9.618;2022-07-31T15:15:06;25.80;90.60
15355;DHT22;7777;52.254;9.618;2022-07-31T15:17:32;25.80;90.80
15355;DHT22;7777;52.254;9.618;2022-07-31T15:19:58;25.80;91.10
15355;DHT22;7777;52.254;9.618;2022-07-31T15:22:24;25.70;91.20
15355;DHT22;7777;52.254;9.618;2022-07-31T15:24:50;25.70;91.10
15355;DHT22;7777;52.254;9.618;2022-07-31T15:27:19;25.70;91.10
15355;DHT22;7777;52.254;9.618;2022-07-31T15:29:46;25.60;91.30
15355;DHT22;7777;52.254;9.618;2022-07-31T15:32:12;25.60;90.90
15355;DHT22;7777;52.254;9.618;2022-07-31T15:34:38;25.50;90.10
15355;DHT22;7777;52.254;9.618;2022-07-31T15:37:03;25.50;91.00
15355;DHT22;7777;52.254;9.618;2022-07-31T15:39:29;25.50;91.10
15355;DHT22;7777;52.254;9.618;2022-07-31T15:41:55;25.40;90.70
15355;DHT22;7777;52.254;9.618;2022-07-31T15:44:23;25.40;91.10
15355;DHT22;7777;52.254;9.618;2022-07-31T15:46:49;25.40;91.40
15355;DHT22;7777;52.254;9.618;2022-07-31T15:49:15;25.30;91.10
15355;DHT22;7777;52.254;9.618;2022-07-31T15:51:40;25.20;90.20
15355;DHT22;7777;52.254;9.618;2022-07-31T15:54:06;25.00;90.10
15355;DHT22;7777;52.254;9.618;2022-07-31T15:56:32;24.90;90.50
15355;DHT22;7777;52.254;9.618;2022-07-31T15:58:57;24.90;91.40
15355;DHT22;7777;52.254;9.618;2022-07-31T16:01:25;24.90;91.80
15355;DHT22;7777;52.254;9.618;2022-07-31T16:03:51;24.80;91.80